sensor_id;sensor_type;location;lat;lon;timestamp;P1;durP1;ratioP1;P2;durP2;ratioP2
60060;SDS011;45933;51.336;12.612;2022-07-31T00:00:35;8.90;;;8.02;;
60060;SDS011;45933;51.336;12.612;2022-07-31T00:03:01;9.63;;;8.50;;
60060;SDS011;45933;51.336;12.612;2022-07-31T00:05:26;9.90;;;8.45;;
60060;SDS011;45933;51.336;12.612;2022-07-31T00:07:52;9.65;;;7.68;;
60060;SDS011;45933;51.336;12.612;2022-07-31T00:10:18;12.77;;;9.27;;
60060;SDS011;45933;51.336;12.612;2022-07-31T00:12:43;8.20;;;7.43;;
60060;SDS011;45933;51.336;12.612;2022-07-31T00:15:09;10.02;;;8.15;;
60060;SDS011;45933;51.336;12.612;2022-07-31T00:17:36;9.00;;;8.10;;
60060;SDS011;45933;51.336;12.612;2022-07-31T00:20:03;10.23;;;8.30;;
60060;SDS011;45933;51.336;12.612;2022-07-31T00:22:29;12.13;;;8.68;;
60060;SDS011;45933;51.336;12.612;2022-07-31T00:24:54;9.73;;;8.48;;
60060;SDS011;45933;51.336;12.612;2022-07-31T00:27:20;10.35;;;8.35;;
60060;SDS011;45933;51.336;12.612;2022-07-31T00:29:45;15.32;;;8.10;;
60060;SDS011;45933;51.336;12.612;2022-07-31T00:32:11;10.82;;;8.75;;
60060;SDS011;45933;51.336;12.612;2022-07-31T00:34:37;9.07;;;8.00;;
60060;SDS011;45933;51.336;12.612;2022-07-31T00:37:02;9.80;;;8.32;;
60060;SDS011;45933;51.336;12.612;2022-07-31T00:39:27;9.48;;;8.48;;
60060;SDS011;45933;51.336;12.612;2022-07-31T00:41:54;8.98;;;8.10;;
60060;SDS011;45933;51.336;12.612;2022-07-31T00:44:20;12.18;;;8.65;;
60060;SDS011;45933;51.336;12.612;2022-07-31T00:46:46;14.48;;;8.98;;
60060;SDS011;45933;51.336;12.612;2022-07-31T00:49:11;9.13;;;7.97;;
60060;SDS011;45933;51.336;12.612;2022-07-31T00:51:37;11.15;;;8.50;;
60060;SDS011;45933;51.336;12.612;2022-07-31T00:54:04;9.30;;;8.13;;
60060;SDS011;45933;51.336;12.612;2022-07-31T00:56:30;9.48;;;8.55;;
60060;SDS011;45933;51.336;12.612;2022-07-31T00:58:56;9.23;;;8.05;;
60060;SDS011;45933;51.336;12.612;2022-07-31T01:01:21;9.20;;;8.23;;
60060;SDS011;45933;51.336;12.612;2022-07-31T01:03:47;9.77;;;8.80;;
60060;SDS011;45933;51.336;12.612;2022-07-31T01:06:13;10.52;;;9.00;;
60060;SDS011;45933;51.336;12.612;2022-07-31T01:08:39;9.40;;;8.50;;
60060;SDS011;45933;51.336;12.612;2022-07-31T01:11:10;8.95;;;8.15;;
60060;SDS011;45933;51.336;12.612;2022-07-31T01:13:54;12.02;;;8.75;;
60060;SDS011;45933;51.336;12.612;2022-07-31T01:16:23;9.77;;;8.55;;
60060;SDS011;45933;51.336;12.612;2022-07-31T01:18:51;9.30;;;8.35;;
60060;SDS011;45933;51.336;12.612;2022-07-31T01:21:39;9.52;;;7.90;;
60060;SDS011;45933;51.336;12.612;2022-07-31T01:27:05;9.48;;;8.57;;
60060;SDS011;45933;51.336;12.612;2022-07-31T01:29:41;9.35;;;8.43;;
60060;SDS011;45933;51.336;12.612;2022-07-31T01:32:14;9.20;;;8.23;;
60060;SDS011;45933;51.336;12.612;2022-07-31T01:34:47;10.98;;;9.05;;
60060;SDS011;45933;51.336;12.612;2022-07-31T01:37:38;10.05;;;9.02;;
60060;SDS011;45933;51.336;12.612;2022-07-31T01:40:09;12.02;;;8.68;;
60060;SDS011;45933;51.336;12.612;2022-07-31T01:42:38;13.15;;;9.32;;
60060;SDS011;45933;51.336;12.612;2022-07-31T01:45:06;10.48;;;8.73;;
60060;SDS011;45933;51.336;12.612;2022-07-31T01:47:35;10.68;;;8.20;;
60060;SDS011;45933;51.336;12.612;2022-07-31T01:50:02;10.00;;;8.57;;
60060;SDS011;45933;51.336;12.612;2022-07-31T01:52:29;12.90;;;9.20;;
60060;SDS011;45933;51.336;12.612;2022-07-31T01:54:56;11.75;;;8.98;;
60060;SDS011;45933;51.336;12.612;2022-07-31T01:57:24;9.00;;;8.10;;
60060;SDS011;45933;51.336;12.612;2022-07-31T01:59:54;9.35;;;8.32;;
60060;SDS011;45933;51.336;12.612;2022-07-31T02:02:24;11.55;;;9.25;;
60060;SDS011;45933;51.336;12.612;2022-07-31T02:04:51;11.57;;;9.20;;
60060;SDS011;45933;51.336;12.612;2022-07-31T02:07:17;14.38;;;10.43;;
60060;SDS011;45933;51.336;12.612;2022-07-31T02:09:44;12.48;;;9.23;;
60060;SDS011;45933;51.336;12.612;2022-07-31T02:12:11;10.70;;;9.35;;
60060;SDS011;45933;51.336;12.612;2022-07-31T02:14:37;10.23;;;9.23;;
60060;SDS011;45933;51.336;12.612;2022-07-31T02:17:06;10.18;;;9.13;;
60060;SDS011;45933;51.336;12.612;2022-07-31T02:19:33;11.25;;;10.00;;
60060;SDS011;45933;51.336;12.612;2022-07-31T02:22:02;10.30;;;8.85;;
60060;SDS011;45933;51.336;12.612;2022-07-31T02:24:28;10.30;;;9.30;;
60060;SDS011;45933;51.336;12.612;2022-07-31T02:26:54;10.48;;;9.40;;
60060;SDS011;45933;51.336;12.612;2022-07-31T02:29:21;11.40;;;10.20;;
60060;SDS011;45933;51.336;12.612;2022-07-31T02:31:49;9.93;;;8.95;;
60060;SDS011;45933;51.336;12.612;2022-07-31T02:34:15;11.02;;;9.50;;
60060;SDS011;45933;51.336;12.612;2022-07-31T02:36:43;10.15;;;9.20;;
60060;SDS011;45933;51.336;12.612;2022-07-31T02:39:11;11.38;;;9.70;;
60060;SDS011;45933;51.336;12.612;2022-07-31T02:41:39;13.73;;;9.93;;
60060;SDS011;45933;51.336;12.612;2022-07-31T02:44:05;12.30;;;10.63;;
60060;SDS011;45933;51.336;12.612;2022-07-31T02:46:32;11.13;;;9.82;;
60060;SDS011;45933;51.336;12.612;2022-07-31T02:48:59;12.02;;;10.05;;
60060;SDS011;45933;51.336;12.612;2022-07-31T02:51:26;11.75;;;9.73;;
60060;SDS011;45933;51.336;12.612;2022-07-31T02:53:52;11.27;;;10.05;;
60060;SDS011;45933;51.336;12.612;2022-07-31T02:56:17;11.68;;;9.65;;
60060;SDS011;45933;51.336;12.612;2022-07-31T02:58:43;10.98;;;9.80;;
60060;SDS011;45933;51.336;12.612;2022-07-31T03:01:08;10.55;;;9.52;;
60060;SDS011;45933;51.336;12.612;2022-07-31T03:03:34;13.43;;;10.15;;
60060;SDS011;45933;51.336;12.612;2022-07-31T03:05:59;12.98;;;9.43;;
60060;SDS011;45933;51.336;12.612;2022-07-31T03:08:28;12.60;;;10.85;;
60060;SDS011;45933;51.336;12.612;2022-07-31T03:10:53;10.50;;;9.50;;
60060;SDS011;45933;51.336;12.612;2022-07-31T03:13:19;10.50;;;9.50;;
60060;SDS011;45933;51.336;12.612;2022-07-31T03:15:47;11.98;;;10.38;;
60060;SDS011;45933;51.336;12.612;2022-07-31T03:18:13;12.30;;;10.48;;
60060;SDS011;45933;51.336;12.612;2022-07-31T03:20:40;10.98;;;9.88;;
60060;SDS011;45933;51.336;12.612;2022-07-31T03:23:07;11.25;;;10.05;;
60060;SDS011;45933;51.336;12.612;2022-07-31T03:25:34;15.48;;;11.00;;
60060;SDS011;45933;51.336;12.612;2022-07-31T03:28:00;10.93;;;9.52;;
60060;SDS011;45933;51.336;12.612;2022-07-31T03:30:25;11.18;;;9.98;;
60060;SDS011;45933;51.336;12.612;2022-07-31T03:32:51;13.77;;;10.15;;
60060;SDS011;45933;51.336;12.612;2022-07-31T03:35:17;11.10;;;9.88;;
60060;SDS011;45933;51.336;12.612;2022-07-31T03:37:43;11.60;;;10.40;;
60060;SDS011;45933;51.336;12.612;2022-07-31T03:40:09;11.52;;;9.90;;
60060;SDS011;45933;51.336;12.612;2022-07-31T03:42:35;10.57;;;9.57;;
60060;SDS011;45933;51.336;12.612;2022-07-31T03:45:01;11.32;;;9.98;;
60060;SDS011;45933;51.336;12.612;2022-07-31T03:47:28;12.73;;;10.35;;
60060;SDS011;45933;51.336;12.612;2022-07-31T03:49:54;11.82;;;10.43;;
60060;SDS011;45933;51.336;12.612;2022-07-31T03:52:20;11.43;;;10.23;;
60060;SDS011;45933;51.336;12.612;2022-07-31T03:54:46;11.30;;;10.20;;
60060;SDS011;45933;51.336;12.612;2022-07-31T03:57:11;11.48;;;10.27;;
60060;SDS011;45933;51.336;12.612;2022-07-31T03:59:37;12.60;;;10.82;;
60060;SDS011;45933;51.336;12.612;2022-07-31T04:02:04;12.05;;;10.85;;
60060;SDS011;45933;51.336;12.612;2022-07-31T04:04:32;14.77;;;10.48;;
60060;SDS011;45933;51.336;12.612;2022-07-31T04:06:58;11.63;;;10.35;;
60060;SDS011;45933;51.336;12.612;2022-07-31T04:09:24;12.98;;;11.20;;
60060;SDS011;45933;51.336;12.612;2022-07-31T04:11:49;14.10;;;11.25;;
60060;SDS011;45933;51.336;12.612;2022-07-31T04:14:14;13.00;;;10.52;;
60060;SDS011;45933;51.336;12.612;2022-07-31T04:16:40;12.10;;;10.10;;
60060;SDS011;45933;51.336;12.612;2022-07-31T04:19:05;15.85;;;10.75;;
60060;SDS011;45933;51.336;12.612;2022-07-31T04:21:31;12.77;;;10.85;;
60060;SDS011;45933;51.336;12.612;2022-07-31T04:23:56;11.45;;;10.35;;
60060;SDS011;45933;51.336;12.612;2022-07-31T04:26:21;12.77;;;10.85;;
60060;SDS011;45933;51.336;12.612;2022-07-31T04:28:47;12.25;;;10.65;;
60060;SDS011;45933;51.336;12.612;2022-07-31T04:31:13;12.45;;;11.25;;
60060;SDS011;45933;51.336;12.612;2022-07-31T04:33:38;12.85;;;11.52;;
60060;SDS011;45933;51.336;12.612;2022-07-31T04:36:04;13.55;;;11.45;;
60060;SDS011;45933;51.336;12.612;2022-07-31T04:38:29;13.30;;;11.90;;
60060;SDS011;45933;51.336;12.612;2022-07-31T04:40:54;13.75;;;10.73;;
60060;SDS011;45933;51.336;12.612;2022-07-31T04:43:20;16.05;;;14.55;;
60060;SDS011;45933;51.336;12.612;2022-07-31T04:45:45;14.00;;;12.65;;
60060;SDS011;45933;51.336;12.612;2022-07-31T04:48:11;12.00;;;10.80;;
60060;SDS011;45933;51.336;12.612;2022-07-31T04:50:36;12.52;;;11.43;;
60060;SDS011;45933;51.336;12.612;2022-07-31T04:53:02;12.88;;;11.52;;
60060;SDS011;45933;51.336;12.612;2022-07-31T04:55:28;12.30;;;10.98;;
60060;SDS011;45933;51.336;12.612;2022-07-31T04:57:53;11.48;;;10.32;;
60060;SDS011;45933;51.336;12.612;2022-07-31T05:00:19;14.27;;;10.70;;
60060;SDS011;45933;51.336;12.612;2022-07-31T05:02:44;11.30;;;10.20;;
60060;SDS011;45933;51.336;12.612;2022-07-31T05:05:10;12.13;;;11.02;;
60060;SDS011;45933;51.336;12.612;2022-07-31T05:07:35;12.73;;;11.20;;
60060;SDS011;45933;51.336;12.612;2022-07-31T05:10:01;11.65;;;10.15;;
60060;SDS011;45933;51.336;12.612;2022-07-31T05:12:26;15.95;;;11.30;;
60060;SDS011;45933;51.336;12.612;2022-07-31T05:14:52;17.08;;;11.43;;
60060;SDS011;45933;51.336;12.612;2022-07-31T05:17:17;11.27;;;10.18;;
60060;SDS011;45933;51.336;12.612;2022-07-31T05:19:43;12.77;;;10.85;;
60060;SDS011;45933;51.336;12.612;2022-07-31T05:22:08;12.50;;;11.27;;
60060;SDS011;45933;51.336;12.612;2022-07-31T05:24:35;12.10;;;10.90;;
60060;SDS011;45933;51.336;12.612;2022-07-31T05:27:01;11.85;;;10.48;;
60060;SDS011;45933;51.336;12.612;2022-07-31T05:29:27;12.18;;;10.88;;
60060;SDS011;45933;51.336;12.612;2022-07-31T05:31:52;12.98;;;11.18;;
60060;SDS011;45933;51.336;12.612;2022-07-31T05:34:17;15.13;;;12.18;;
60060;SDS011;45933;51.336;12.612;2022-07-31T05:36:43;12.15;;;10.70;;
60060;SDS011;45933;51.336;12.612;2022-07-31T05:39:09;11.75;;;10.10;;
60060;SDS011;45933;51.336;12.612;2022-07-31T05:41:36;17.95;;;11.70;;
60060;SDS011;45933;51.336;12.612;2022-07-31T05:44:02;11.38;;;10.13;;
60060;SDS011;45933;51.336;12.612;2022-07-31T05:46:28;11.45;;;10.38;;
60060;SDS011;45933;51.336;12.612;2022-07-31T05:48:53;11.63;;;10.63;;
60060;SDS011;45933;51.336;12.612;2022-07-31T05:51:18;13.18;;;9.93;;
60060;SDS011;45933;51.336;12.612;2022-07-31T05:53:44;11.20;;;9.68;;
60060;SDS011;45933;51.336;12.612;2022-07-31T05:56:09;11.10;;;10.02;;
60060;SDS011;45933;51.336;12.612;2022-07-31T05:58:35;10.27;;;9.27;;
60060;SDS011;45933;51.336;12.612;2022-07-31T06:01:01;12.60;;;9.75;;
60060;SDS011;45933;51.336;12.612;2022-07-31T06:03:26;11.80;;;10.45;;
60060;SDS011;45933;51.336;12.612;2022-07-31T06:05:53;13.05;;;10.93;;
60060;SDS011;45933;51.336;12.612;2022-07-31T06:08:19;12.27;;;11.02;;
60060;SDS011;45933;51.336;12.612;2022-07-31T06:10:44;12.00;;;10.80;;
60060;SDS011;45933;51.336;12.612;2022-07-31T06:13:10;18.08;;;10.25;;
60060;SDS011;45933;51.336;12.612;2022-07-31T06:15:36;11.02;;;9.85;;
60060;SDS011;45933;51.336;12.612;2022-07-31T06:18:01;11.05;;;9.27;;
60060;SDS011;45933;51.336;12.612;2022-07-31T06:20:27;10.73;;;9.73;;
60060;SDS011;45933;51.336;12.612;2022-07-31T06:22:53;10.32;;;9.43;;
60060;SDS011;45933;51.336;12.612;2022-07-31T06:25:19;9.57;;;8.68;;
60060;SDS011;45933;51.336;12.612;2022-07-31T06:27:44;10.50;;;9.50;;
60060;SDS011;45933;51.336;12.612;2022-07-31T06:30:10;10.05;;;9.05;;
60060;SDS011;45933;51.336;12.612;2022-07-31T06:32:36;13.48;;;9.07;;
60060;SDS011;45933;51.336;12.612;2022-07-31T06:35:02;13.68;;;8.73;;
60060;SDS011;45933;51.336;12.612;2022-07-31T06:37:28;10.27;;;9.27;;
60060;SDS011;45933;51.336;12.612;2022-07-31T06:39:54;9.60;;;8.60;;
60060;SDS011;45933;51.336;12.612;2022-07-31T06:42:20;9.88;;;8.98;;
60060;SDS011;45933;51.336;12.612;2022-07-31T06:44:46;13.68;;;9.38;;
60060;SDS011;45933;51.336;12.612;2022-07-31T06:47:13;9.05;;;8.15;;
60060;SDS011;45933;51.336;12.612;2022-07-31T06:49:38;10.20;;;8.30;;
60060;SDS011;45933;51.336;12.612;2022-07-31T06:52:05;9.02;;;8.13;;
60060;SDS011;45933;51.336;12.612;2022-07-31T06:54:30;9.20;;;8.05;;
60060;SDS011;45933;51.336;12.612;2022-07-31T06:56:55;8.57;;;7.78;;
60060;SDS011;45933;51.336;12.612;2022-07-31T06:59:21;12.05;;;8.80;;
60060;SDS011;45933;51.336;12.612;2022-07-31T07:01:46;8.63;;;7.93;;
60060;SDS011;45933;51.336;12.612;2022-07-31T07:04:12;8.25;;;7.55;;
60060;SDS011;45933;51.336;12.612;2022-07-31T07:06:37;8.50;;;7.80;;
60060;SDS011;45933;51.336;12.612;2022-07-31T07:09:03;8.95;;;8.20;;
60060;SDS011;45933;51.336;12.612;2022-07-31T07:11:28;9.05;;;8.13;;
60060;SDS011;45933;51.336;12.612;2022-07-31T07:13:54;8.20;;;7.40;;
60060;SDS011;45933;51.336;12.612;2022-07-31T07:16:19;8.75;;;7.93;;
60060;SDS011;45933;51.336;12.612;2022-07-31T07:18:45;8.02;;;7.28;;
60060;SDS011;45933;51.336;12.612;2022-07-31T07:21:11;9.85;;;7.65;;
60060;SDS011;45933;51.336;12.612;2022-07-31T07:23:37;8.25;;;7.38;;
60060;SDS011;45933;51.336;12.612;2022-07-31T07:26:03;7.93;;;6.90;;
60060;SDS011;45933;51.336;12.612;2022-07-31T07:28:28;12.05;;;6.90;;
60060;SDS011;45933;51.336;12.612;2022-07-31T07:30:54;7.38;;;6.63;;
60060;SDS011;45933;51.336;12.612;2022-07-31T07:33:19;8.80;;;7.03;;
60060;SDS011;45933;51.336;12.612;2022-07-31T07:35:45;7.85;;;7.05;;
60060;SDS011;45933;51.336;12.612;2022-07-31T07:38:11;11.10;;;7.22;;
60060;SDS011;45933;51.336;12.612;2022-07-31T07:40:36;9.07;;;8.15;;
60060;SDS011;45933;51.336;12.612;2022-07-31T07:43:02;7.93;;;6.55;;
60060;SDS011;45933;51.336;12.612;2022-07-31T07:45:27;7.55;;;6.80;;
60060;SDS011;45933;51.336;12.612;2022-07-31T07:47:53;7.93;;;6.93;;
60060;SDS011;45933;51.336;12.612;2022-07-31T07:50:18;7.75;;;6.80;;
60060;SDS011;45933;51.336;12.612;2022-07-31T07:52:43;8.75;;;6.80;;
60060;SDS011;45933;51.336;12.612;2022-07-31T07:55:09;10.88;;;8.40;;
60060;SDS011;45933;51.336;12.612;2022-07-31T07:57:36;7.63;;;6.93;;
60060;SDS011;45933;51.336;12.612;2022-07-31T08:00:03;7.88;;;7.18;;
60060;SDS011;45933;51.336;12.612;2022-07-31T08:02:33;8.20;;;6.55;;
60060;SDS011;45933;51.336;12.612;2022-07-31T08:04:59;7.13;;;6.43;;
60060;SDS011;45933;51.336;12.612;2022-07-31T08:07:28;8.98;;;6.88;;
60060;SDS011;45933;51.336;12.612;2022-07-31T08:09:57;14.07;;;6.50;;
60060;SDS011;45933;51.336;12.612;2022-07-31T08:12:23;9.70;;;6.60;;
60060;SDS011;45933;51.336;12.612;2022-07-31T08:14:50;10.18;;;6.60;;
60060;SDS011;45933;51.336;12.612;2022-07-31T08:17:16;8.68;;;6.20;;
60060;SDS011;45933;51.336;12.612;2022-07-31T08:19:41;6.50;;;5.90;;
60060;SDS011;45933;51.336;12.612;2022-07-31T08:22:07;7.43;;;6.03;;
60060;SDS011;45933;51.336;12.612;2022-07-31T08:24:33;8.15;;;7.25;;
60060;SDS011;45933;51.336;12.612;2022-07-31T08:26:58;6.65;;;6.05;;
60060;SDS011;45933;51.336;12.612;2022-07-31T08:29:42;6.68;;;6.05;;
60060;SDS011;45933;51.336;12.612;2022-07-31T08:32:08;6.28;;;5.68;;
60060;SDS011;45933;51.336;12.612;2022-07-31T08:34:33;6.88;;;5.90;;
60060;SDS011;45933;51.336;12.612;2022-07-31T08:36:58;7.97;;;5.85;;
60060;SDS011;45933;51.336;12.612;2022-07-31T08:39:24;6.18;;;5.57;;
60060;SDS011;45933;51.336;12.612;2022-07-31T08:41:49;8.48;;;6.28;;
60060;SDS011;45933;51.336;12.612;2022-07-31T08:44:15;7.10;;;5.40;;
60060;SDS011;45933;51.336;12.612;2022-07-31T08:46:40;6.90;;;6.20;;
60060;SDS011;45933;51.336;12.612;2022-07-31T08:49:06;7.20;;;5.70;;
60060;SDS011;45933;51.336;12.612;2022-07-31T08:51:37;6.80;;;5.43;;
60060;SDS011;45933;51.336;12.612;2022-07-31T08:54:07;5.72;;;5.13;;
60060;SDS011;45933;51.336;12.612;2022-07-31T08:56:37;5.75;;;5.25;;
60060;SDS011;45933;51.336;12.612;2022-07-31T08:59:03;6.80;;;5.60;;
60060;SDS011;45933;51.336;12.612;2022-07-31T09:01:31;8.73;;;6.40;;
60060;SDS011;45933;51.336;12.612;2022-07-31T09:03:58;7.57;;;5.25;;
60060;SDS011;45933;51.336;12.612;2022-07-31T09:06:24;5.47;;;4.88;;
60060;SDS011;45933;51.336;12.612;2022-07-31T09:08:50;4.97;;;4.47;;
60060;SDS011;45933;51.336;12.612;2022-07-31T09:11:16;5.00;;;4.53;;
60060;SDS011;45933;51.336;12.612;2022-07-31T09:13:54;8.15;;;5.20;;
60060;SDS011;45933;51.336;12.612;2022-07-31T09:16:23;6.38;;;5.50;;
60060;SDS011;45933;51.336;12.612;2022-07-31T09:18:56;4.60;;;4.20;;
60060;SDS011;45933;51.336;12.612;2022-07-31T09:21:37;8.10;;;4.68;;
60060;SDS011;45933;51.336;12.612;2022-07-31T09:24:07;6.78;;;4.35;;
60060;SDS011;45933;51.336;12.612;2022-07-31T09:26:34;7.00;;;4.70;;
60060;SDS011;45933;51.336;12.612;2022-07-31T09:29:01;5.05;;;4.25;;
60060;SDS011;45933;51.336;12.612;2022-07-31T09:31:32;6.53;;;4.40;;
60060;SDS011;45933;51.336;12.612;2022-07-31T09:34:00;8.27;;;4.10;;
60060;SDS011;45933;51.336;12.612;2022-07-31T09:36:26;5.90;;;4.13;;
60060;SDS011;45933;51.336;12.612;2022-07-31T09:38:51;6.63;;;4.07;;
60060;SDS011;45933;51.336;12.612;2022-07-31T09:41:18;5.30;;;3.60;;
60060;SDS011;45933;51.336;12.612;2022-07-31T09:43:58;19.42;;;4.40;;
60060;SDS011;45933;51.336;12.612;2022-07-31T09:46:36;4.40;;;4.00;;
60060;SDS011;45933;51.336;12.612;2022-07-31T09:49:13;6.38;;;3.67;;
60060;SDS011;45933;51.336;12.612;2022-07-31T09:51:43;4.43;;;3.97;;
60060;SDS011;45933;51.336;12.612;2022-07-31T09:54:20;5.72;;;4.68;;
60060;SDS011;45933;51.336;12.612;2022-07-31T09:56:46;5.22;;;4.50;;
60060;SDS011;45933;51.336;12.612;2022-07-31T09:59:14;9.70;;;3.80;;
60060;SDS011;45933;51.336;12.612;2022-07-31T10:01:39;5.45;;;3.58;;
60060;SDS011;45933;51.336;12.612;2022-07-31T10:04:06;3.97;;;3.42;;
60060;SDS011;45933;51.336;12.612;2022-07-31T10:06:33;4.22;;;3.40;;
60060;SDS011;45933;51.336;12.612;2022-07-31T10:08:59;5.72;;;3.75;;
60060;SDS011;45933;51.336;12.612;2022-07-31T10:11:27;6.45;;;4.00;;
60060;SDS011;45933;51.336;12.612;2022-07-31T10:13:55;4.00;;;3.58;;
60060;SDS011;45933;51.336;12.612;2022-07-31T10:16:25;4.50;;;3.80;;
60060;SDS011;45933;51.336;12.612;2022-07-31T10:18:56;4.07;;;3.65;;
60060;SDS011;45933;51.336;12.612;2022-07-31T10:21:25;4.65;;;3.90;;
60060;SDS011;45933;51.336;12.612;2022-07-31T10:23:56;3.63;;;3.17;;
60060;SDS011;45933;51.336;12.612;2022-07-31T10:26:23;5.03;;;3.20;;
60060;SDS011;45933;51.336;12.612;2022-07-31T10:28:49;4.88;;;3.35;;
60060;SDS011;45933;51.336;12.612;2022-07-31T10:31:15;3.53;;;3.00;;
60060;SDS011;45933;51.336;12.612;2022-07-31T10:33:40;5.03;;;3.13;;
60060;SDS011;45933;51.336;12.612;2022-07-31T10:36:08;3.45;;;2.65;;
60060;SDS011;45933;51.336;12.612;2022-07-31T10:44:30;3.63;;;2.53;;
60060;SDS011;45933;51.336;12.612;2022-07-31T10:46:58;5.95;;;2.55;;
60060;SDS011;45933;51.336;12.612;2022-07-31T10:49:37;5.03;;;2.90;;
60060;SDS011;45933;51.336;12.612;2022-07-31T10:52:13;4.40;;;3.00;;
60060;SDS011;45933;51.336;12.612;2022-07-31T10:54:49;4.38;;;2.70;;
60060;SDS011;45933;51.336;12.612;2022-07-31T10:57:21;3.95;;;2.83;;
60060;SDS011;45933;51.336;12.612;2022-07-31T10:59:51;4.00;;;2.05;;
60060;SDS011;45933;51.336;12.612;2022-07-31T11:02:29;3.40;;;2.60;;
60060;SDS011;45933;51.336;12.612;2022-07-31T11:05:06;4.20;;;2.55;;
60060;SDS011;45933;51.336;12.612;2022-07-31T11:07:33;2.70;;;2.20;;
60060;SDS011;45933;51.336;12.612;2022-07-31T11:10:12;2.78;;;2.25;;
60060;SDS011;45933;51.336;12.612;2022-07-31T11:12:42;3.42;;;2.22;;
60060;SDS011;45933;51.336;12.612;2022-07-31T11:15:21;3.63;;;2.55;;
60060;SDS011;45933;51.336;12.612;2022-07-31T11:17:48;5.30;;;2.38;;
60060;SDS011;45933;51.336;12.612;2022-07-31T11:20:21;6.53;;;2.60;;
60060;SDS011;45933;51.336;12.612;2022-07-31T11:22:53;2.97;;;2.33;;
60060;SDS011;45933;51.336;12.612;2022-07-31T11:25:27;2.30;;;2.10;;
60060;SDS011;45933;51.336;12.612;2022-07-31T11:27:54;3.25;;;1.90;;
60060;SDS011;45933;51.336;12.612;2022-07-31T11:30:21;2.10;;;1.98;;
60060;SDS011;45933;51.336;12.612;2022-07-31T11:32:47;2.10;;;1.85;;
60060;SDS011;45933;51.336;12.612;2022-07-31T11:35:22;3.58;;;2.95;;
60060;SDS011;45933;51.336;12.612;2022-07-31T11:37:52;5.53;;;2.15;;
60060;SDS011;45933;51.336;12.612;2022-07-31T11:40:18;2.88;;;2.63;;
60060;SDS011;45933;51.336;12.612;2022-07-31T11:42:44;2.60;;;2.00;;
60060;SDS011;45933;51.336;12.612;2022-07-31T11:45:10;2.83;;;1.77;;
60060;SDS011;45933;51.336;12.612;2022-07-31T11:47:39;2.47;;;1.90;;
60060;SDS011;45933;51.336;12.612;2022-07-31T11:50:06;3.05;;;2.10;;
60060;SDS011;45933;51.336;12.612;2022-07-31T11:52:34;2.28;;;2.00;;
60060;SDS011;45933;51.336;12.612;2022-07-31T11:55:06;2.25;;;1.85;;
60060;SDS011;45933;51.336;12.612;2022-07-31T11:57:32;3.25;;;1.58;;
60060;SDS011;45933;51.336;12.612;2022-07-31T12:00:04;1.90;;;1.55;;
60060;SDS011;45933;51.336;12.612;2022-07-31T12:02:34;2.50;;;1.73;;
60060;SDS011;45933;51.336;12.612;2022-07-31T12:05:03;2.22;;;1.80;;
60060;SDS011;45933;51.336;12.612;2022-07-31T12:07:28;2.00;;;1.80;;
60060;SDS011;45933;51.336;12.612;2022-07-31T12:09:54;1.98;;;1.60;;
60060;SDS011;45933;51.336;12.612;2022-07-31T12:12:20;2.45;;;1.70;;
60060;SDS011;45933;51.336;12.612;2022-07-31T12:14:45;1.88;;;1.63;;
60060;SDS011;45933;51.336;12.612;2022-07-31T12:17:18;2.65;;;1.70;;
60060;SDS011;45933;51.336;12.612;2022-07-31T12:19:44;2.30;;;2.05;;
60060;SDS011;45933;51.336;12.612;2022-07-31T12:22:13;2.60;;;2.15;;
60060;SDS011;45933;51.336;12.612;2022-07-31T12:24:40;2.20;;;1.95;;
60060;SDS011;45933;51.336;12.612;2022-07-31T12:27:07;2.53;;;1.83;;
60060;SDS011;45933;51.336;12.612;2022-07-31T12:29:34;2.40;;;1.80;;
60060;SDS011;45933;51.336;12.612;2022-07-31T12:32:02;1.60;;;1.50;;
60060;SDS011;45933;51.336;12.612;2022-07-31T12:34:29;1.80;;;1.70;;
60060;SDS011;45933;51.336;12.612;2022-07-31T12:36:57;2.30;;;1.95;;
60060;SDS011;45933;51.336;12.612;2022-07-31T12:39:26;2.78;;;1.80;;
60060;SDS011;45933;51.336;12.612;2022-07-31T12:41:52;3.63;;;1.77;;
60060;SDS011;45933;51.336;12.612;2022-07-31T12:44:17;2.10;;;1.90;;
60060;SDS011;45933;51.336;12.612;2022-07-31T12:46:44;3.03;;;1.75;;
60060;SDS011;45933;51.336;12.612;2022-07-31T12:49:10;1.85;;;1.52;;
60060;SDS011;45933;51.336;12.612;2022-07-31T12:51:35;5.10;;;1.75;;
60060;SDS011;45933;51.336;12.612;2022-07-31T12:54:01;4.28;;;1.77;;
60060;SDS011;45933;51.336;12.612;2022-07-31T12:56:28;1.73;;;1.63;;
60060;SDS011;45933;51.336;12.612;2022-07-31T12:58:54;3.20;;;1.83;;
60060;SDS011;45933;51.336;12.612;2022-07-31T13:01:19;1.88;;;1.55;;
60060;SDS011;45933;51.336;12.612;2022-07-31T13:03:45;4.57;;;1.88;;
60060;SDS011;45933;51.336;12.612;2022-07-31T13:06:12;1.63;;;1.50;;
60060;SDS011;45933;51.336;12.612;2022-07-31T13:08:38;2.47;;;1.60;;
60060;SDS011;45933;51.336;12.612;2022-07-31T13:11:03;2.95;;;1.60;;
60060;SDS011;45933;51.336;12.612;2022-07-31T13:13:29;2.58;;;1.52;;
60060;SDS011;45933;51.336;12.612;2022-07-31T13:15:54;3.03;;;1.75;;
60060;SDS011;45933;51.336;12.612;2022-07-31T13:18:19;2.85;;;1.63;;
60060;SDS011;45933;51.336;12.612;2022-07-31T13:20:45;1.70;;;1.50;;
60060;SDS011;45933;51.336;12.612;2022-07-31T13:23:10;2.53;;;1.77;;
60060;SDS011;45933;51.336;12.612;2022-07-31T13:25:36;2.75;;;1.80;;
60060;SDS011;45933;51.336;12.612;2022-07-31T13:28:01;2.75;;;1.60;;
60060;SDS011;45933;51.336;12.612;2022-07-31T13:30:27;2.17;;;1.98;;
60060;SDS011;45933;51.336;12.612;2022-07-31T13:32:52;1.38;;;1.27;;
60060;SDS011;45933;51.336;12.612;2022-07-31T13:35:18;2.28;;;1.23;;
60060;SDS011;45933;51.336;12.612;2022-07-31T13:37:45;1.83;;;1.20;;
60060;SDS011;45933;51.336;12.612;2022-07-31T13:40:11;1.77;;;1.20;;
60060;SDS011;45933;51.336;12.612;2022-07-31T13:42:37;1.27;;;1.17;;
60060;SDS011;45933;51.336;12.612;2022-07-31T13:45:02;1.70;;;1.30;;
60060;SDS011;45933;51.336;12.612;2022-07-31T13:47:28;2.70;;;1.23;;
60060;SDS011;45933;51.336;12.612;2022-07-31T13:49:53;1.20;;;0.90;;
60060;SDS011;45933;51.336;12.612;2022-07-31T13:52:19;1.27;;;1.15;;
60060;SDS011;45933;51.336;12.612;2022-07-31T13:54:44;2.53;;;1.13;;
60060;SDS011;45933;51.336;12.612;2022-07-31T13:57:10;1.38;;;1.10;;
60060;SDS011;45933;51.336;12.612;2022-07-31T13:59:35;1.92;;;1.20;;
60060;SDS011;45933;51.336;12.612;2022-07-31T14:02:00;2.00;;;1.08;;
60060;SDS011;45933;51.336;12.612;2022-07-31T14:04:26;1.60;;;1.15;;
60060;SDS011;45933;51.336;12.612;2022-07-31T14:06:52;1.42;;;1.33;;
60060;SDS011;45933;51.336;12.612;2022-07-31T14:09:17;1.83;;;1.40;;
60060;SDS011;45933;51.336;12.612;2022-07-31T14:11:43;1.52;;;1.42;;
60060;SDS011;45933;51.336;12.612;2022-07-31T14:14:08;2.83;;;1.42;;
60060;SDS011;45933;51.336;12.612;2022-07-31T14:16:33;2.00;;;1.20;;
60060;SDS011;45933;51.336;12.612;2022-07-31T14:18:59;1.65;;;1.30;;
60060;SDS011;45933;51.336;12.612;2022-07-31T14:21:24;1.05;;;1.00;;
60060;SDS011;45933;51.336;12.612;2022-07-31T14:23:50;1.35;;;1.25;;
60060;SDS011;45933;51.336;12.612;2022-07-31T14:26:15;1.50;;;1.30;;
60060;SDS011;45933;51.336;12.612;2022-07-31T14:28:40;2.33;;;1.40;;
60060;SDS011;45933;51.336;12.612;2022-07-31T14:31:06;1.55;;;1.30;;
60060;SDS011;45933;51.336;12.612;2022-07-31T14:33:31;1.88;;;1.30;;